KTPA

Tampa International Airport

Tampa, Florida, USA
METAR KTPA 200853Z 00000KT 10SM FEW021 27/24 A2995 RMK AO2 SLP140 T02670244 55011
Observed Flight Rules
Jun-20 @ 08:53 UTC (17 minutes ago) Visual Flight Rules
Visibility Clouds
10 miles
  • Few at 2,100' AGL
Temperatures Readings
Current 27°C / 81°F
Dewpoint 24°C / 75°F
Humidity 84%
Altimeter 29.95" Hg
Pressure 1014 hPa
Elevation 11
METAR KTPA 200853Z 00000KT 10SM FEW021 27/24 A2995 RMK AO2 SLP140 T02670244 55011
Observed Flight Rules
Jun-20 @ 08:53 UTC
(17 minutes ago)
VFR
Clouds
  • Few at 2,100' AGL
Temperature Dewpoint
27°C / 81°F 24°C / 75°F
Humidity Altimeter Pressure
84% 29.95" Hg 1014 hPa